sensor_id;sensor_type;location;lat;lon;timestamp;P1;P2;P0
26720;PMS1003;15950;51.112;6.966;2023-02-28T00:00:43;002;001;
26720;PMS1003;15950;51.112;6.966;2023-02-28T00:03:43;000;000;
26720;PMS1003;15950;51.112;6.966;2023-02-28T00:06:43;002;002;
26720;PMS1003;15950;51.112;6.966;2023-02-28T00:09:43;002;002;
26720;PMS1003;15950;51.112;6.966;2023-02-28T00:12:43;001;001;
26720;PMS1003;15950;51.112;6.966;2023-02-28T00:15:43;000;000;
26720;PMS1003;15950;51.112;6.966;2023-02-28T00:18:43;000;000;
26720;PMS1003;15950;51.112;6.966;2023-02-28T00:21:43;000;000;
26720;PMS1003;15950;51.112;6.966;2023-02-28T00:24:43;000;000;
26720;PMS1003;15950;51.112;6.966;2023-02-28T00:27:43;000;000;
26720;PMS1003;15950;51.112;6.966;2023-02-28T00:30:43;002;002;
26720;PMS1003;15950;51.112;6.966;2023-02-28T00:33:43;000;000;
26720;PMS1003;15950;51.112;6.966;2023-02-28T00:36:43;001;001;
26720;PMS1003;15950;51.112;6.966;2023-02-28T00:39:43;002;001;
26720;PMS1003;15950;51.112;6.966;2023-02-28T00:42:43;000;000;
26720;PMS1003;15950;51.112;6.966;2023-02-28T00:45:43;000;000;
26720;PMS1003;15950;51.112;6.966;2023-02-28T00:48:43;002;001;
26720;PMS1003;15950;51.112;6.966;2023-02-28T00:51:43;002;001;
26720;PMS1003;15950;51.112;6.966;2023-02-28T00:54:43;002;001;
26720;PMS1003;15950;51.112;6.966;2023-02-28T00:57:43;000;000;
26720;PMS1003;15950;51.112;6.966;2023-02-28T01:00:43;000;000;
26720;PMS1003;15950;51.112;6.966;2023-02-28T01:03:43;006;005;
26720;PMS1003;15950;51.112;6.966;2023-02-28T01:06:43;000;000;
26720;PMS1003;15950;51.112;6.966;2023-02-28T01:09:43;003;002;
26720;PMS1003;15950;51.112;6.966;2023-02-28T01:12:43;002;001;
26720;PMS1003;15950;51.112;6.966;2023-02-28T01:15:49;003;002;
26720;PMS1003;15950;51.112;6.966;2023-02-28T01:18:43;000;000;
26720;PMS1003;15950;51.112;6.966;2023-02-28T01:21:43;000;000;
26720;PMS1003;15950;51.112;6.966;2023-02-28T01:24:43;001;001;
26720;PMS1003;15950;51.112;6.966;2023-02-28T01:27:43;002;002;
26720;PMS1003;15950;51.112;6.966;2023-02-28T01:30:46;000;000;
26720;PMS1003;15950;51.112;6.966;2023-02-28T01:33:43;000;000;
26720;PMS1003;15950;51.112;6.966;2023-02-28T01:36:43;001;001;
26720;PMS1003;15950;51.112;6.966;2023-02-28T01:39:43;001;001;
26720;PMS1003;15950;51.112;6.966;2023-02-28T01:42:43;002;001;
26720;PMS1003;15950;51.112;6.966;2023-02-28T01:45:43;003;003;
26720;PMS1003;15950;51.112;6.966;2023-02-28T01:48:47;000;000;
26720;PMS1003;15950;51.112;6.966;2023-02-28T01:54:43;000;000;
26720;PMS1003;15950;51.112;6.966;2023-02-28T01:57:45;002;001;
26720;PMS1003;15950;51.112;6.966;2023-02-28T02:00:43;001;001;
26720;PMS1003;15950;51.112;6.966;2023-02-28T02:03:43;000;000;
26720;PMS1003;15950;51.112;6.966;2023-02-28T02:06:43;000;000;
26720;PMS1003;15950;51.112;6.966;2023-02-28T02:09:43;000;000;
26720;PMS1003;15950;51.112;6.966;2023-02-28T02:18:43;002;001;
26720;PMS1003;15950;51.112;6.966;2023-02-28T02:36:47;002;001;
26720;PMS1003;15950;51.112;6.966;2023-02-28T02:45:47;002;001;
26720;PMS1003;15950;51.112;6.966;2023-02-28T02:48:42;003;002;
26720;PMS1003;15950;51.112;6.966;2023-02-28T02:51:42;005;003;
26720;PMS1003;15950;51.112;6.966;2023-02-28T02:54:43;003;002;
26720;PMS1003;15950;51.112;6.966;2023-02-28T03:00:45;005;004;
26720;PMS1003;15950;51.112;6.966;2023-02-28T03:03:42;003;002;
26720;PMS1003;15950;51.112;6.966;2023-02-28T03:06:42;000;000;
26720;PMS1003;15950;51.112;6.966;2023-02-28T03:12:47;004;003;
26720;PMS1003;15950;51.112;6.966;2023-02-28T03:33:50;000;000;
26720;PMS1003;15950;51.112;6.966;2023-02-28T03:36:44;001;001;
26720;PMS1003;15950;51.112;6.966;2023-02-28T03:39:43;002;001;
26720;PMS1003;15950;51.112;6.966;2023-02-28T03:42:43;000;000;
26720;PMS1003;15950;51.112;6.966;2023-02-28T03:45:42;000;000;
26720;PMS1003;15950;51.112;6.966;2023-02-28T03:48:44;002;001;
26720;PMS1003;15950;51.112;6.966;2023-02-28T03:51:42;003;002;
26720;PMS1003;15950;51.112;6.966;2023-02-28T03:54:44;000;000;
26720;PMS1003;15950;51.112;6.966;2023-02-28T04:03:42;000;000;
26720;PMS1003;15950;51.112;6.966;2023-02-28T04:06:43;000;000;
26720;PMS1003;15950;51.112;6.966;2023-02-28T04:09:43;003;002;
26720;PMS1003;15950;51.112;6.966;2023-02-28T04:12:42;004;003;
26720;PMS1003;15950;51.112;6.966;2023-02-28T04:15:42;001;001;
26720;PMS1003;15950;51.112;6.966;2023-02-28T04:18:42;000;000;
26720;PMS1003;15950;51.112;6.966;2023-02-28T04:21:44;000;000;
26720;PMS1003;15950;51.112;6.966;2023-02-28T04:24:42;000;000;
26720;PMS1003;15950;51.112;6.966;2023-02-28T04:27:42;000;000;
26720;PMS1003;15950;51.112;6.966;2023-02-28T04:30:42;000;000;
26720;PMS1003;15950;51.112;6.966;2023-02-28T04:33:42;000;000;
26720;PMS1003;15950;51.112;6.966;2023-02-28T04:36:42;000;000;
26720;PMS1003;15950;51.112;6.966;2023-02-28T04:39:42;001;001;
26720;PMS1003;15950;51.112;6.966;2023-02-28T04:42:42;000;000;
26720;PMS1003;15950;51.112;6.966;2023-02-28T04:45:42;000;000;
26720;PMS1003;15950;51.112;6.966;2023-02-28T04:48:42;000;000;
26720;PMS1003;15950;51.112;6.966;2023-02-28T04:51:42;000;000;
26720;PMS1003;15950;51.112;6.966;2023-02-28T04:54:43;000;000;
26720;PMS1003;15950;51.112;6.966;2023-02-28T04:57:42;000;000;
26720;PMS1003;15950;51.112;6.966;2023-02-28T05:00:42;002;001;
26720;PMS1003;15950;51.112;6.966;2023-02-28T05:03:43;002;001;
26720;PMS1003;15950;51.112;6.966;2023-02-28T05:06:42;000;000;
26720;PMS1003;15950;51.112;6.966;2023-02-28T05:09:42;000;000;
26720;PMS1003;15950;51.112;6.966;2023-02-28T05:12:42;000;000;
26720;PMS1003;15950;51.112;6.966;2023-02-28T05:15:42;000;000;
26720;PMS1003;15950;51.112;6.966;2023-02-28T05:18:43;000;000;
26720;PMS1003;15950;51.112;6.966;2023-02-28T05:24:42;000;000;
26720;PMS1003;15950;51.112;6.966;2023-02-28T05:27:42;000;000;
26720;PMS1003;15950;51.112;6.966;2023-02-28T05:30:42;000;000;
26720;PMS1003;15950;51.112;6.966;2023-02-28T05:33:42;003;002;
26720;PMS1003;15950;51.112;6.966;2023-02-28T05:36:42;002;001;
26720;PMS1003;15950;51.112;6.966;2023-02-28T05:39:42;000;000;
26720;PMS1003;15950;51.112;6.966;2023-02-28T05:42:42;000;000;
26720;PMS1003;15950;51.112;6.966;2023-02-28T05:45:42;002;001;
26720;PMS1003;15950;51.112;6.966;2023-02-28T05:48:45;000;000;
26720;PMS1003;15950;51.112;6.966;2023-02-28T05:51:42;000;000;
26720;PMS1003;15950;51.112;6.966;2023-02-28T05:54:42;000;000;
26720;PMS1003;15950;51.112;6.966;2023-02-28T05:57:42;000;000;
26720;PMS1003;15950;51.112;6.966;2023-02-28T06:00:42;000;000;
26720;PMS1003;15950;51.112;6.966;2023-02-28T06:03:42;000;000;
26720;PMS1003;15950;51.112;6.966;2023-02-28T06:06:43;000;000;
26720;PMS1003;15950;51.112;6.966;2023-02-28T06:09:42;000;000;
26720;PMS1003;15950;51.112;6.966;2023-02-28T06:12:42;000;000;
26720;PMS1003;15950;51.112;6.966;2023-02-28T06:15:42;000;000;
26720;PMS1003;15950;51.112;6.966;2023-02-28T06:18:42;001;001;
26720;PMS1003;15950;51.112;6.966;2023-02-28T06:21:42;001;001;
26720;PMS1003;15950;51.112;6.966;2023-02-28T06:24:42;000;000;
26720;PMS1003;15950;51.112;6.966;2023-02-28T06:27:42;000;000;
26720;PMS1003;15950;51.112;6.966;2023-02-28T06:30:42;000;000;
26720;PMS1003;15950;51.112;6.966;2023-02-28T06:33:43;002;002;
26720;PMS1003;15950;51.112;6.966;2023-02-28T06:36:42;003;002;
26720;PMS1003;15950;51.112;6.966;2023-02-28T06:39:42;000;000;
26720;PMS1003;15950;51.112;6.966;2023-02-28T06:42:42;000;000;
26720;PMS1003;15950;51.112;6.966;2023-02-28T06:45:43;000;000;
26720;PMS1003;15950;51.112;6.966;2023-02-28T06:48:43;002;001;
26720;PMS1003;15950;51.112;6.966;2023-02-28T06:51:43;002;001;
26720;PMS1003;15950;51.112;6.966;2023-02-28T06:54:42;000;000;
26720;PMS1003;15950;51.112;6.966;2023-02-28T06:57:42;003;002;
26720;PMS1003;15950;51.112;6.966;2023-02-28T07:00:42;002;001;
26720;PMS1003;15950;51.112;6.966;2023-02-28T07:03:42;002;002;
26720;PMS1003;15950;51.112;6.966;2023-02-28T07:06:42;000;000;
26720;PMS1003;15950;51.112;6.966;2023-02-28T07:09:42;002;001;
26720;PMS1003;15950;51.112;6.966;2023-02-28T07:12:42;000;000;
26720;PMS1003;15950;51.112;6.966;2023-02-28T07:15:42;000;000;
26720;PMS1003;15950;51.112;6.966;2023-02-28T07:18:42;002;001;
26720;PMS1003;15950;51.112;6.966;2023-02-28T07:21:42;002;002;
26720;PMS1003;15950;51.112;6.966;2023-02-28T07:24:42;002;001;
26720;PMS1003;15950;51.112;6.966;2023-02-28T07:27:42;000;000;
26720;PMS1003;15950;51.112;6.966;2023-02-28T07:30:42;002;002;
26720;PMS1003;15950;51.112;6.966;2023-02-28T07:33:42;002;002;
26720;PMS1003;15950;51.112;6.966;2023-02-28T07:36:42;000;000;
26720;PMS1003;15950;51.112;6.966;2023-02-28T07:39:42;000;000;
26720;PMS1003;15950;51.112;6.966;2023-02-28T07:42:42;003;002;
26720;PMS1003;15950;51.112;6.966;2023-02-28T07:45:42;001;001;
26720;PMS1003;15950;51.112;6.966;2023-02-28T07:48:42;002;001;
26720;PMS1003;15950;51.112;6.966;2023-02-28T07:51:42;001;001;
26720;PMS1003;15950;51.112;6.966;2023-02-28T07:54:42;000;000;
26720;PMS1003;15950;51.112;6.966;2023-02-28T07:57:42;000;000;
26720;PMS1003;15950;51.112;6.966;2023-02-28T08:00:42;002;001;
26720;PMS1003;15950;51.112;6.966;2023-02-28T08:03:42;003;002;
26720;PMS1003;15950;51.112;6.966;2023-02-28T08:06:42;002;001;
26720;PMS1003;15950;51.112;6.966;2023-02-28T08:09:42;002;001;
26720;PMS1003;15950;51.112;6.966;2023-02-28T08:12:42;000;000;
26720;PMS1003;15950;51.112;6.966;2023-02-28T08:15:42;000;000;
26720;PMS1003;15950;51.112;6.966;2023-02-28T08:18:42;000;000;
26720;PMS1003;15950;51.112;6.966;2023-02-28T08:21:42;000;000;
26720;PMS1003;15950;51.112;6.966;2023-02-28T08:24:42;000;000;
26720;PMS1003;15950;51.112;6.966;2023-02-28T08:27:42;000;000;
26720;PMS1003;15950;51.112;6.966;2023-02-28T08:30:42;000;000;
26720;PMS1003;15950;51.112;6.966;2023-02-28T08:33:42;000;000;
26720;PMS1003;15950;51.112;6.966;2023-02-28T08:36:42;002;002;
26720;PMS1003;15950;51.112;6.966;2023-02-28T08:39:42;000;000;
26720;PMS1003;15950;51.112;6.966;2023-02-28T08:42:42;002;001;
26720;PMS1003;15950;51.112;6.966;2023-02-28T08:45:42;000;000;
26720;PMS1003;15950;51.112;6.966;2023-02-28T08:48:42;000;000;
26720;PMS1003;15950;51.112;6.966;2023-02-28T08:51:42;000;000;
26720;PMS1003;15950;51.112;6.966;2023-02-28T08:54:42;000;000;
26720;PMS1003;15950;51.112;6.966;2023-02-28T08:57:42;000;000;
26720;PMS1003;15950;51.112;6.966;2023-02-28T09:00:42;000;000;
26720;PMS1003;15950;51.112;6.966;2023-02-28T09:03:42;000;000;
26720;PMS1003;15950;51.112;6.966;2023-02-28T09:06:42;002;001;
26720;PMS1003;15950;51.112;6.966;2023-02-28T09:09:42;000;000;
26720;PMS1003;15950;51.112;6.966;2023-02-28T09:12:42;000;000;
26720;PMS1003;15950;51.112;6.966;2023-02-28T09:15:42;000;000;
26720;PMS1003;15950;51.112;6.966;2023-02-28T09:18:42;000;000;
26720;PMS1003;15950;51.112;6.966;2023-02-28T09:21:42;000;000;
26720;PMS1003;15950;51.112;6.966;2023-02-28T09:24:42;000;000;
26720;PMS1003;15950;51.112;6.966;2023-02-28T09:27:42;000;000;
26720;PMS1003;15950;51.112;6.966;2023-02-28T09:30:46;000;000;
26720;PMS1003;15950;51.112;6.966;2023-02-28T09:33:42;000;000;
26720;PMS1003;15950;51.112;6.966;2023-02-28T09:36:42;000;000;
26720;PMS1003;15950;51.112;6.966;2023-02-28T09:39:42;000;000;
26720;PMS1003;15950;51.112;6.966;2023-02-28T09:42:42;000;000;
26720;PMS1003;15950;51.112;6.966;2023-02-28T09:45:42;000;000;
26720;PMS1003;15950;51.112;6.966;2023-02-28T09:48:44;000;000;
26720;PMS1003;15950;51.112;6.966;2023-02-28T09:54:42;000;000;
26720;PMS1003;15950;51.112;6.966;2023-02-28T09:57:42;000;000;
26720;PMS1003;15950;51.112;6.966;2023-02-28T10:00:42;000;000;
26720;PMS1003;15950;51.112;6.966;2023-02-28T10:03:46;000;000;
26720;PMS1003;15950;51.112;6.966;2023-02-28T10:06:44;000;000;
26720;PMS1003;15950;51.112;6.966;2023-02-28T10:09:42;001;001;
26720;PMS1003;15950;51.112;6.966;2023-02-28T10:12:43;000;000;
26720;PMS1003;15950;51.112;6.966;2023-02-28T10:15:42;000;000;
26720;PMS1003;15950;51.112;6.966;2023-02-28T10:18:46;001;001;
26720;PMS1003;15950;51.112;6.966;2023-02-28T10:24:43;000;000;
26720;PMS1003;15950;51.112;6.966;2023-02-28T10:27:42;000;000;
26720;PMS1003;15950;51.112;6.966;2023-02-28T10:30:43;000;000;
26720;PMS1003;15950;51.112;6.966;2023-02-28T10:33:42;000;000;
26720;PMS1003;15950;51.112;6.966;2023-02-28T10:36:42;000;000;
26720;PMS1003;15950;51.112;6.966;2023-02-28T10:39:44;012;008;
26720;PMS1003;15950;51.112;6.966;2023-02-28T10:42:42;002;001;
26720;PMS1003;15950;51.112;6.966;2023-02-28T10:49:00;000;000;
26720;PMS1003;15950;51.112;6.966;2023-02-28T10:51:42;000;000;
26720;PMS1003;15950;51.112;6.966;2023-02-28T10:54:42;000;000;
26720;PMS1003;15950;51.112;6.966;2023-02-28T10:57:42;000;000;
26720;PMS1003;15950;51.112;6.966;2023-02-28T11:00:42;000;000;
26720;PMS1003;15950;51.112;6.966;2023-02-28T11:03:42;000;000;
26720;PMS1003;15950;51.112;6.966;2023-02-28T11:06:42;000;000;
26720;PMS1003;15950;51.112;6.966;2023-02-28T11:09:44;000;000;
26720;PMS1003;15950;51.112;6.966;2023-02-28T11:12:42;000;000;
26720;PMS1003;15950;51.112;6.966;2023-02-28T11:15:42;000;000;
26720;PMS1003;15950;51.112;6.966;2023-02-28T11:21:45;000;000;
26720;PMS1003;15950;51.112;6.966;2023-02-28T11:24:43;000;000;
26720;PMS1003;15950;51.112;6.966;2023-02-28T11:30:42;000;000;
26720;PMS1003;15950;51.112;6.966;2023-02-28T11:36:42;000;000;
26720;PMS1003;15950;51.112;6.966;2023-02-28T11:39:43;000;000;
26720;PMS1003;15950;51.112;6.966;2023-02-28T11:45:44;000;000;
26720;PMS1003;15950;51.112;6.966;2023-02-28T12:06:47;000;000;
26720;PMS1003;15950;51.112;6.966;2023-02-28T12:27:43;000;000;
26720;PMS1003;15950;51.112;6.966;2023-02-28T12:31:29;000;000;
26720;PMS1003;15950;51.112;6.966;2023-02-28T12:33:44;001;001;
26720;PMS1003;15950;51.112;6.966;2023-02-28T12:36:42;000;000;
26720;PMS1003;15950;51.112;6.966;2023-02-28T12:39:45;002;001;
26720;PMS1003;15950;51.112;6.966;2023-02-28T12:42:44;003;002;
26720;PMS1003;15950;51.112;6.966;2023-02-28T12:48:43;000;000;
26720;PMS1003;15950;51.112;6.966;2023-02-28T12:51:42;000;000;
26720;PMS1003;15950;51.112;6.966;2023-02-28T12:54:44;000;000;
26720;PMS1003;15950;51.112;6.966;2023-02-28T13:00:46;001;001;
26720;PMS1003;15950;51.112;6.966;2023-02-28T13:09:50;000;000;
26720;PMS1003;15950;51.112;6.966;2023-02-28T13:12:47;000;000;
26720;PMS1003;15950;51.112;6.966;2023-02-28T13:15:56;000;000;
26720;PMS1003;15950;51.112;6.966;2023-02-28T13:21:43;000;000;
26720;PMS1003;15950;51.112;6.966;2023-02-28T13:27:42;000;000;
26720;PMS1003;15950;51.112;6.966;2023-02-28T13:36:42;000;000;
26720;PMS1003;15950;51.112;6.966;2023-02-28T13:46:03;000;000;
26720;PMS1003;15950;51.112;6.966;2023-02-28T13:48:42;000;000;
26720;PMS1003;15950;51.112;6.966;2023-02-28T13:51:43;000;000;
26720;PMS1003;15950;51.112;6.966;2023-02-28T14:06:52;001;001;
26720;PMS1003;15950;51.112;6.966;2023-02-28T14:09:45;002;001;
26720;PMS1003;15950;51.112;6.966;2023-02-28T14:18:47;000;000;
26720;PMS1003;15950;51.112;6.966;2023-02-28T14:27:44;005;003;
26720;PMS1003;15950;51.112;6.966;2023-02-28T14:36:42;000;000;
26720;PMS1003;15950;51.112;6.966;2023-02-28T14:39:42;000;000;
26720;PMS1003;15950;51.112;6.966;2023-02-28T14:42:46;002;002;
26720;PMS1003;15950;51.112;6.966;2023-02-28T14:45:42;000;000;
26720;PMS1003;15950;51.112;6.966;2023-02-28T14:48:44;003;002;
26720;PMS1003;15950;51.112;6.966;2023-02-28T14:51:42;000;000;
26720;PMS1003;15950;51.112;6.966;2023-02-28T14:54:42;000;000;
26720;PMS1003;15950;51.112;6.966;2023-02-28T14:57:50;000;000;
26720;PMS1003;15950;51.112;6.966;2023-02-28T15:03:42;000;000;
26720;PMS1003;15950;51.112;6.966;2023-02-28T15:06:42;000;000;
26720;PMS1003;15950;51.112;6.966;2023-02-28T15:09:42;000;000;
26720;PMS1003;15950;51.112;6.966;2023-02-28T15:12:43;001;001;
26720;PMS1003;15950;51.112;6.966;2023-02-28T15:15:44;003;002;
26720;PMS1003;15950;51.112;6.966;2023-02-28T15:18:44;002;002;
26720;PMS1003;15950;51.112;6.966;2023-02-28T15:21:43;000;000;
26720;PMS1003;15950;51.112;6.966;2023-02-28T15:27:44;002;002;
26720;PMS1003;15950;51.112;6.966;2023-02-28T15:30:50;000;000;
26720;PMS1003;15950;51.112;6.966;2023-02-28T15:33:51;000;000;
26720;PMS1003;15950;51.112;6.966;2023-02-28T15:36:42;000;000;
26720;PMS1003;15950;51.112;6.966;2023-02-28T15:39:42;000;000;
26720;PMS1003;15950;51.112;6.966;2023-02-28T15:42:42;002;001;
26720;PMS1003;15950;51.112;6.966;2023-02-28T15:45:46;000;000;
26720;PMS1003;15950;51.112;6.966;2023-02-28T15:48:43;000;000;
26720;PMS1003;15950;51.112;6.966;2023-02-28T15:51:42;004;004;
26720;PMS1003;15950;51.112;6.966;2023-02-28T15:54:42;001;001;
26720;PMS1003;15950;51.112;6.966;2023-02-28T15:57:42;003;002;
26720;PMS1003;15950;51.112;6.966;2023-02-28T16:00:43;002;001;
26720;PMS1003;15950;51.112;6.966;2023-02-28T16:03:47;000;000;
26720;PMS1003;15950;51.112;6.966;2023-02-28T16:06:45;000;000;
26720;PMS1003;15950;51.112;6.966;2023-02-28T16:09:42;001;001;
26720;PMS1003;15950;51.112;6.966;2023-02-28T16:12:42;000;000;
26720;PMS1003;15950;51.112;6.966;2023-02-28T16:15:42;000;000;
26720;PMS1003;15950;51.112;6.966;2023-02-28T16:18:42;002;002;
26720;PMS1003;15950;51.112;6.966;2023-02-28T16:21:42;002;001;
26720;PMS1003;15950;51.112;6.966;2023-02-28T16:24:42;000;000;
26720;PMS1003;15950;51.112;6.966;2023-02-28T16:27:42;000;000;
26720;PMS1003;15950;51.112;6.966;2023-02-28T16:30:42;000;000;
26720;PMS1003;15950;51.112;6.966;2023-02-28T16:33:43;003;002;
26720;PMS1003;15950;51.112;6.966;2023-02-28T16:36:42;000;000;
26720;PMS1003;15950;51.112;6.966;2023-02-28T16:39:42;000;000;
26720;PMS1003;15950;51.112;6.966;2023-02-28T16:42:42;002;001;
26720;PMS1003;15950;51.112;6.966;2023-02-28T16:45:42;004;004;
26720;PMS1003;15950;51.112;6.966;2023-02-28T16:48:43;002;002;
26720;PMS1003;15950;51.112;6.966;2023-02-28T16:51:46;001;001;
26720;PMS1003;15950;51.112;6.966;2023-02-28T16:54:42;003;002;
26720;PMS1003;15950;51.112;6.966;2023-02-28T16:57:42;004;004;
26720;PMS1003;15950;51.112;6.966;2023-02-28T17:00:42;004;003;
26720;PMS1003;15950;51.112;6.966;2023-02-28T17:03:42;005;003;
26720;PMS1003;15950;51.112;6.966;2023-02-28T17:06:42;003;002;
26720;PMS1003;15950;51.112;6.966;2023-02-28T17:09:42;003;002;
26720;PMS1003;15950;51.112;6.966;2023-02-28T17:12:42;002;001;
26720;PMS1003;15950;51.112;6.966;2023-02-28T17:15:42;003;002;
26720;PMS1003;15950;51.112;6.966;2023-02-28T17:18:42;005;004;
26720;PMS1003;15950;51.112;6.966;2023-02-28T17:21:42;007;007;
26720;PMS1003;15950;51.112;6.966;2023-02-28T17:24:42;003;003;
26720;PMS1003;15950;51.112;6.966;2023-02-28T17:27:42;003;002;
26720;PMS1003;15950;51.112;6.966;2023-02-28T17:30:42;003;002;
26720;PMS1003;15950;51.112;6.966;2023-02-28T17:33:42;006;004;
26720;PMS1003;15950;51.112;6.966;2023-02-28T17:36:42;004;003;
26720;PMS1003;15950;51.112;6.966;2023-02-28T17:39:42;003;002;
26720;PMS1003;15950;51.112;6.966;2023-02-28T17:42:42;007;005;
26720;PMS1003;15950;51.112;6.966;2023-02-28T17:45:42;002;001;
26720;PMS1003;15950;51.112;6.966;2023-02-28T17:48:42;002;001;
26720;PMS1003;15950;51.112;6.966;2023-02-28T17:51:45;003;002;
26720;PMS1003;15950;51.112;6.966;2023-02-28T17:54:42;003;002;
26720;PMS1003;15950;51.112;6.966;2023-02-28T17:57:42;003;002;
26720;PMS1003;15950;51.112;6.966;2023-02-28T18:00:42;006;004;
26720;PMS1003;15950;51.112;6.966;2023-02-28T18:03:42;005;004;
26720;PMS1003;15950;51.112;6.966;2023-02-28T18:06:45;003;002;
26720;PMS1003;15950;51.112;6.966;2023-02-28T18:09:42;007;005;
26720;PMS1003;15950;51.112;6.966;2023-02-28T18:12:42;004;003;
26720;PMS1003;15950;51.112;6.966;2023-02-28T18:15:42;004;003;
26720;PMS1003;15950;51.112;6.966;2023-02-28T18:18:43;007;005;
26720;PMS1003;15950;51.112;6.966;2023-02-28T18:21:46;006;005;
26720;PMS1003;15950;51.112;6.966;2023-02-28T18:24:42;005;003;
26720;PMS1003;15950;51.112;6.966;2023-02-28T18:27:42;007;005;
26720;PMS1003;15950;51.112;6.966;2023-02-28T18:30:42;004;003;
26720;PMS1003;15950;51.112;6.966;2023-02-28T18:33:42;006;004;
26720;PMS1003;15950;51.112;6.966;2023-02-28T18:36:42;009;008;
26720;PMS1003;15950;51.112;6.966;2023-02-28T18:39:42;007;005;
26720;PMS1003;15950;51.112;6.966;2023-02-28T18:42:42;005;003;
26720;PMS1003;15950;51.112;6.966;2023-02-28T18:45:42;009;006;
26720;PMS1003;15950;51.112;6.966;2023-02-28T18:48:42;003;002;
26720;PMS1003;15950;51.112;6.966;2023-02-28T18:51:42;005;003;
26720;PMS1003;15950;51.112;6.966;2023-02-28T18:54:42;003;002;
26720;PMS1003;15950;51.112;6.966;2023-02-28T18:57:42;005;003;
26720;PMS1003;15950;51.112;6.966;2023-02-28T19:00:42;005;003;
26720;PMS1003;15950;51.112;6.966;2023-02-28T19:03:42;007;005;
26720;PMS1003;15950;51.112;6.966;2023-02-28T19:06:42;006;005;
26720;PMS1003;15950;51.112;6.966;2023-02-28T19:09:42;003;002;
26720;PMS1003;15950;51.112;6.966;2023-02-28T19:12:42;006;004;
26720;PMS1003;15950;51.112;6.966;2023-02-28T19:15:42;005;004;
26720;PMS1003;15950;51.112;6.966;2023-02-28T19:18:42;005;003;
26720;PMS1003;15950;51.112;6.966;2023-02-28T19:21:42;006;006;
26720;PMS1003;15950;51.112;6.966;2023-02-28T19:24:42;006;004;
26720;PMS1003;15950;51.112;6.966;2023-02-28T19:27:42;004;003;
26720;PMS1003;15950;51.112;6.966;2023-02-28T19:30:46;008;006;
26720;PMS1003;15950;51.112;6.966;2023-02-28T19:33:42;006;005;
26720;PMS1003;15950;51.112;6.966;2023-02-28T19:36:42;009;006;
26720;PMS1003;15950;51.112;6.966;2023-02-28T19:39:42;003;002;
26720;PMS1003;15950;51.112;6.966;2023-02-28T19:42:42;003;002;
26720;PMS1003;15950;51.112;6.966;2023-02-28T19:45:42;010;007;
26720;PMS1003;15950;51.112;6.966;2023-02-28T19:48:42;006;004;
26720;PMS1003;15950;51.112;6.966;2023-02-28T19:51:42;005;003;
26720;PMS1003;15950;51.112;6.966;2023-02-28T19:54:42;007;005;
26720;PMS1003;15950;51.112;6.966;2023-02-28T19:57:42;009;008;
26720;PMS1003;15950;51.112;6.966;2023-02-28T20:00:42;007;005;
26720;PMS1003;15950;51.112;6.966;2023-02-28T20:03:42;005;003;
26720;PMS1003;15950;51.112;6.966;2023-02-28T20:06:42;007;006;
26720;PMS1003;15950;51.112;6.966;2023-02-28T20:09:42;010;008;
26720;PMS1003;15950;51.112;6.966;2023-02-28T20:12:42;013;009;
26720;PMS1003;15950;51.112;6.966;2023-02-28T20:15:42;009;006;
26720;PMS1003;15950;51.112;6.966;2023-02-28T20:18:42;010;007;
26720;PMS1003;15950;51.112;6.966;2023-02-28T20:21:42;010;007;
26720;PMS1003;15950;51.112;6.966;2023-02-28T20:24:42;012;008;
26720;PMS1003;15950;51.112;6.966;2023-02-28T20:27:42;009;006;
26720;PMS1003;15950;51.112;6.966;2023-02-28T20:30:42;009;006;
26720;PMS1003;15950;51.112;6.966;2023-02-28T20:33:42;013;009;
26720;PMS1003;15950;51.112;6.966;2023-02-28T20:36:42;013;011;
26720;PMS1003;15950;51.112;6.966;2023-02-28T20:39:42;014;010;
26720;PMS1003;15950;51.112;6.966;2023-02-28T20:42:42;014;010;
26720;PMS1003;15950;51.112;6.966;2023-02-28T20:45:49;014;010;
26720;PMS1003;15950;51.112;6.966;2023-02-28T20:48:42;014;010;
26720;PMS1003;15950;51.112;6.966;2023-02-28T20:51:43;014;010;
26720;PMS1003;15950;51.112;6.966;2023-02-28T20:54:42;016;011;
26720;PMS1003;15950;51.112;6.966;2023-02-28T20:57:42;020;014;
26720;PMS1003;15950;51.112;6.966;2023-02-28T21:00:42;016;011;
26720;PMS1003;15950;51.112;6.966;2023-02-28T21:03:43;019;013;
26720;PMS1003;15950;51.112;6.966;2023-02-28T21:06:42;011;010;
26720;PMS1003;15950;51.112;6.966;2023-02-28T21:09:42;012;010;
26720;PMS1003;15950;51.112;6.966;2023-02-28T21:12:42;015;012;
26720;PMS1003;15950;51.112;6.966;2023-02-28T21:15:42;012;009;
26720;PMS1003;15950;51.112;6.966;2023-02-28T21:18:42;010;007;
26720;PMS1003;15950;51.112;6.966;2023-02-28T21:21:42;015;013;
26720;PMS1003;15950;51.112;6.966;2023-02-28T21:24:42;019;016;
26720;PMS1003;15950;51.112;6.966;2023-02-28T21:27:42;018;014;
26720;PMS1003;15950;51.112;6.966;2023-02-28T21:30:42;017;015;
26720;PMS1003;15950;51.112;6.966;2023-02-28T21:33:42;018;013;
26720;PMS1003;15950;51.112;6.966;2023-02-28T21:36:42;016;014;
26720;PMS1003;15950;51.112;6.966;2023-02-28T21:39:42;020;014;
26720;PMS1003;15950;51.112;6.966;2023-02-28T21:42:42;014;010;
26720;PMS1003;15950;51.112;6.966;2023-02-28T21:45:42;021;015;
26720;PMS1003;15950;51.112;6.966;2023-02-28T21:48:42;014;010;
26720;PMS1003;15950;51.112;6.966;2023-02-28T21:51:42;016;011;
26720;PMS1003;15950;51.112;6.966;2023-02-28T21:54:42;014;010;
26720;PMS1003;15950;51.112;6.966;2023-02-28T21:57:42;015;013;
26720;PMS1003;15950;51.112;6.966;2023-02-28T22:00:42;016;011;
26720;PMS1003;15950;51.112;6.966;2023-02-28T22:03:42;016;011;
26720;PMS1003;15950;51.112;6.966;2023-02-28T22:06:43;012;008;
26720;PMS1003;15950;51.112;6.966;2023-02-28T22:09:42;014;013;
26720;PMS1003;15950;51.112;6.966;2023-02-28T22:12:42;014;012;
26720;PMS1003;15950;51.112;6.966;2023-02-28T22:15:42;012;010;
26720;PMS1003;15950;51.112;6.966;2023-02-28T22:18:42;014;011;
26720;PMS1003;15950;51.112;6.966;2023-02-28T22:21:42;012;008;